Time;durP1;ratioP1;P1;durP2;ratioP2;P2;SDS_P1;SDS_P2;PMS_P1;PMS_P2;Temp;Humidity;BMP_temperature;BMP_pressure;BME280_temperature;BME280_humidity;BME280_pressure;Samples;Min_cycle;Max_cycle;Signal;HPM_P1;HPM_P2
2021/09/09 00:00:49;;;;;;;;;;;20.60;97.70;;;;;;5123720;27;19915;-79
2021/09/09 00:03:15;;;;;;;;;;;20.50;97.70;;;;;;5129040;27;20053;-78
2021/09/09 00:05:40;;;;;;;;;;;20.60;97.80;;;;;;5108285;27;19945;-78
2021/09/09 00:08:06;;;;;;;;;;;20.60;97.70;;;;;;5119180;27;19976;-79
2021/09/09 00:10:31;;;;;;;;;;;20.60;97.80;;;;;;5108893;27;20258;-78
2021/09/09 00:12:57;;;;;;;;;;;20.70;97.70;;;;;;5129171;27;19988;-78
2021/09/09 00:15:23;;;;;;;;;;;20.60;97.80;;;;;;5130600;27;19946;-79
2021/09/09 00:17:49;;;;;;;;;;;20.60;97.80;;;;;;5115521;27;19919;-79
2021/09/09 00:20:14;;;;;;;;;;;20.50;97.90;;;;;;5123169;27;20373;-78
2021/09/09 00:22:40;;;;;;;;;;;20.50;97.90;;;;;;5127844;27;20006;-78
2021/09/09 00:25:06;;;;;;;;;;;20.50;98.30;;;;;;5111417;27;20389;-81
2021/09/09 00:27:32;;;;;;;;;;;20.50;98.10;;;;;;5115828;28;19999;-79
2021/09/09 00:29:57;;;;;;;;;;;20.50;98.00;;;;;;5121224;27;19922;-78
2021/09/09 00:32:23;;;;;;;;;;;20.40;98.00;;;;;;5122479;27;19943;-79
2021/09/09 00:34:48;;;;;;;;;;;20.40;98.00;;;;;;5116121;27;20347;-81
2021/09/09 00:37:14;;;;;;;;;;;20.50;98.10;;;;;;5113666;27;19915;-78
2021/09/09 00:39:40;;;;;;;;;;;20.50;98.40;;;;;;5104052;27;20350;-79
2021/09/09 00:42:05;;;;;;;;;;;20.50;98.10;;;;;;5134500;27;19919;-79
2021/09/09 00:44:31;;;;;;;;;;;20.50;98.10;;;;;;5104950;27;19921;-78
2021/09/09 00:47:01;;;;;;;;;;;20.50;98.10;;;;;;5137666;27;19915;-78
2021/09/09 00:49:27;;;;;;;;;;;20.50;98.20;;;;;;5128565;27;19927;-78
2021/09/09 00:51:53;;;;;;;;;;;20.40;98.10;;;;;;5135886;27;19912;-78
2021/09/09 00:54:19;;;;;;;;;;;20.50;98.10;;;;;;5112284;28;19922;-78
2021/09/09 00:56:44;;;;;;;;;;;20.50;98.10;;;;;;5118553;27;19924;-78
2021/09/09 00:59:10;;;;;;;;;;;20.40;98.20;;;;;;5123254;27;19923;-78
2021/09/09 01:01:36;;;;;;;;;;;20.40;98.20;;;;;;5136957;27;19918;-78
2021/09/09 01:04:01;;;;;;;;;;;20.40;98.20;;;;;;5134619;27;19911;-78
2021/09/09 01:06:27;;;;;;;;;;;20.40;98.20;;;;;;5124035;27;20289;-78
2021/09/09 01:08:52;;;;;;;;;;;20.40;98.30;;;;;;5127546;27;19934;-79
2021/09/09 01:11:18;;;;;;;;;;;20.40;98.20;;;;;;5110367;27;19920;-78
2021/09/09 01:13:51;;;;;;;;;;;20.30;98.30;;;;;;5099336;28;19997;-79
2021/09/09 01:16:16;;;;;;;;;;;20.30;98.40;;;;;;5103514;28;19916;-79
2021/09/09 01:18:42;;;;;;;;;;;20.30;98.50;;;;;;5124597;27;19918;-79
2021/09/09 01:21:08;;;;;;;;;;;20.40;98.50;;;;;;5101020;28;20002;-79
2021/09/09 01:23:35;;;;;;;;;;;20.40;98.40;;;;;;5133095;27;19911;-83
2021/09/09 01:26:01;;;;;;;;;;;20.50;98.30;;;;;;5110374;27;21399;-80
2021/09/09 01:28:28;;;;;;;;;;;20.40;98.30;;;;;;5128780;27;20287;-79
2021/09/09 01:30:54;;;;;;;;;;;20.50;98.50;;;;;;5123233;27;20002;-79
2021/09/09 01:33:19;;;;;;;;;;;20.50;98.30;;;;;;5129026;27;19912;-79
2021/09/09 01:35:45;;;;;;;;;;;20.50;98.40;;;;;;5110785;27;19923;-78
2021/09/09 01:38:21;;;;;;;;;;;20.50;98.60;;;;;;5115266;27;19915;-79
2021/09/09 01:40:46;;;;;;;;;;;20.40;98.40;;;;;;5105232;28;20453;-80
2021/09/09 01:43:12;;;;;;;;;;;20.40;98.60;;;;;;5134697;27;19915;-79
2021/09/09 01:45:38;;;;;;;;;;;20.40;98.70;;;;;;5118331;27;19912;-79
2021/09/09 01:48:03;;;;;;;;;;;20.40;98.60;;;;;;5105832;27;19946;-80
2021/09/09 01:50:29;;;;;;;;;;;20.50;98.60;;;;;;5097304;27;20044;-79
2021/09/09 01:52:55;;;;;;;;;;;20.50;98.50;;;;;;5124135;27;19976;-79
2021/09/09 01:55:21;;;;;;;;;;;20.40;98.50;;;;;;5105261;27;20258;-79
2021/09/09 01:57:47;;;;;;;;;;;20.40;98.60;;;;;;5124202;27;19965;-79
2021/09/09 02:00:12;;;;;;;;;;;20.30;98.80;;;;;;5093898;28;19943;-79
2021/09/09 02:02:39;;;;;;;;;;;20.30;98.90;;;;;;5104292;28;19931;-79
2021/09/09 02:05:04;;;;;;;;;;;20.30;99.10;;;;;;5112275;27;20318;-79
2021/09/09 02:07:30;;;;;;;;;;;20.30;99.10;;;;;;5119096;27;19908;-79
2021/09/09 02:09:56;;;;;;;;;;;20.30;99.10;;;;;;5126691;27;19911;-79
2021/09/09 02:12:21;;;;;;;;;;;20.30;99.20;;;;;;5108292;28;19969;-79
2021/09/09 02:14:47;;;;;;;;;;;20.30;99.00;;;;;;5121614;28;19923;-80
2021/09/09 02:17:12;;;;;;;;;;;20.30;99.10;;;;;;5090652;28;19916;-79
2021/09/09 02:19:38;;;;;;;;;;;20.30;99.10;;;;;;5128259;28;19911;-79
2021/09/09 02:22:03;;;;;;;;;;;20.30;99.10;;;;;;5118848;28;19915;-80
2021/09/09 02:24:29;;;;;;;;;;;20.30;99.40;;;;;;5135012;28;19934;-79
2021/09/09 02:26:55;;;;;;;;;;;20.20;99.30;;;;;;5111179;28;19954;-79
2021/09/09 02:29:20;;;;;;;;;;;20.20;99.10;;;;;;5133181;28;19912;-79
2021/09/09 02:31:46;;;;;;;;;;;20.20;99.10;;;;;;5132814;28;19908;-79
2021/09/09 02:34:11;;;;;;;;;;;20.10;99.40;;;;;;5111069;28;19911;-79
2021/09/09 02:36:37;;;;;;;;;;;20.20;99.20;;;;;;5121428;28;19969;-79
2021/09/09 02:39:03;;;;;;;;;;;20.20;99.30;;;;;;5124581;28;19911;-79
2021/09/09 02:41:28;;;;;;;;;;;20.20;99.50;;;;;;5138676;28;19911;-79
2021/09/09 02:43:54;;;;;;;;;;;20.20;99.30;;;;;;5122192;28;19919;-79
2021/09/09 02:46:20;;;;;;;;;;;20.30;99.60;;;;;;5120158;28;19923;-80
2021/09/09 02:48:46;;;;;;;;;;;20.20;99.20;;;;;;5096711;28;20361;-80
2021/09/09 02:51:12;;;;;;;;;;;20.30;99.30;;;;;;5134063;28;19926;-82
2021/09/09 02:53:37;;;;;;;;;;;20.30;99.40;;;;;;5129624;28;19912;-79
2021/09/09 02:56:03;;;;;;;;;;;20.30;99.20;;;;;;5132028;28;19919;-79
2021/09/09 02:58:28;;;;;;;;;;;20.30;99.10;;;;;;5127957;28;19912;-79
2021/09/09 03:00:54;;;;;;;;;;;20.30;99.60;;;;;;5126285;28;19918;-79
2021/09/09 03:03:21;;;;;;;;;;;20.30;99.30;;;;;;5112057;28;19916;-79
2021/09/09 03:05:47;;;;;;;;;;;20.30;99.20;;;;;;5118758;27;19924;-79
2021/09/09 03:08:12;;;;;;;;;;;20.30;99.40;;;;;;5123010;27;19919;-79
2021/09/09 03:10:38;;;;;;;;;;;20.20;99.30;;;;;;5124704;27;19911;-79
2021/09/09 03:13:04;;;;;;;;;;;20.10;99.60;;;;;;5142076;27;19957;-80
2021/09/09 03:15:31;;;;;;;;;;;20.00;99.60;;;;;;5136559;27;20330;-79
2021/09/09 03:17:56;;;;;;;;;;;19.90;99.80;;;;;;5119129;27;19923;-79
2021/09/09 03:20:22;;;;;;;;;;;19.90;99.80;;;;;;5121240;27;19912;-81
2021/09/09 03:22:48;;;;;;;;;;;20.00;99.70;;;;;;5129146;27;20298;-79
2021/09/09 03:25:13;;;;;;;;;;;19.90;99.90;;;;;;5146943;27;19915;-80
2021/09/09 03:27:39;;;;;;;;;;;19.90;99.90;;;;;;5113887;27;19912;-80
2021/09/09 03:30:05;;;;;;;;;;;19.90;99.90;;;;;;5128211;27;19918;-79
2021/09/09 03:32:31;;;;;;;;;;;19.90;99.90;;;;;;5131235;27;19911;-79
2021/09/09 03:34:56;;;;;;;;;;;19.80;99.90;;;;;;5131879;27;19919;-79
2021/09/09 03:37:22;;;;;;;;;;;19.80;99.90;;;;;;5118915;27;20275;-78
2021/09/09 03:39:48;;;;;;;;;;;19.70;99.90;;;;;;5121433;27;19919;-79
2021/09/09 03:42:13;;;;;;;;;;;19.80;99.90;;;;;;5139911;27;20385;-79
2021/09/09 03:44:39;;;;;;;;;;;19.80;99.90;;;;;;5124172;27;19923;-78
2021/09/09 03:47:05;;;;;;;;;;;19.90;99.90;;;;;;5094139;27;19951;-79
2021/09/09 03:49:30;;;;;;;;;;;19.80;99.90;;;;;;5084581;28;19958;-79
2021/09/09 03:51:56;;;;;;;;;;;19.80;99.90;;;;;;5126117;27;19981;-79
2021/09/09 03:54:22;;;;;;;;;;;19.90;99.90;;;;;;5133279;27;20001;-79
2021/09/09 03:56:47;;;;;;;;;;;19.80;99.90;;;;;;5097565;27;20239;-79
2021/09/09 03:59:13;;;;;;;;;;;19.80;99.90;;;;;;5107420;27;19912;-79
2021/09/09 04:01:38;;;;;;;;;;;19.80;99.90;;;;;;5124837;27;19980;-78
2021/09/09 04:04:04;;;;;;;;;;;19.80;99.90;;;;;;5111221;27;20290;-79
2021/09/09 04:06:30;;;;;;;;;;;19.80;99.90;;;;;;5112113;27;20110;-79
2021/09/09 04:08:55;;;;;;;;;;;19.80;99.90;;;;;;5124728;27;19944;-79
2021/09/09 04:11:21;;;;;;;;;;;19.70;99.90;;;;;;5120866;27;19983;-81
2021/09/09 04:13:47;;;;;;;;;;;19.80;99.90;;;;;;5107191;27;20261;-79
2021/09/09 04:16:13;;;;;;;;;;;19.80;99.90;;;;;;5122587;27;19918;-79
2021/09/09 04:18:39;;;;;;;;;;;19.70;99.90;;;;;;5112717;27;19991;-79
2021/09/09 04:21:04;;;;;;;;;;;19.70;99.90;;;;;;5120871;27;19965;-78
2021/09/09 04:23:30;;;;;;;;;;;19.60;99.90;;;;;;5115850;27;19954;-79
2021/09/09 04:25:55;;;;;;;;;;;19.60;99.90;;;;;;5124151;27;20370;-79
2021/09/09 04:28:21;;;;;;;;;;;19.60;99.90;;;;;;5127888;27;19917;-79
2021/09/09 04:30:48;;;;;;;;;;;19.60;99.90;;;;;;5135287;27;19916;-79
2021/09/09 04:33:14;;;;;;;;;;;19.70;99.90;;;;;;5095299;27;20380;-79
2021/09/09 04:35:40;;;;;;;;;;;19.70;99.90;;;;;;5120098;27;19912;-79
2021/09/09 04:38:05;;;;;;;;;;;19.70;99.90;;;;;;5131417;27;19926;-79
2021/09/09 04:40:31;;;;;;;;;;;19.60;99.90;;;;;;5113780;27;19936;-80
2021/09/09 04:42:57;;;;;;;;;;;19.60;99.90;;;;;;5122908;27;19911;-79
2021/09/09 04:45:23;;;;;;;;;;;19.60;99.90;;;;;;5131567;27;20277;-79
2021/09/09 04:47:48;;;;;;;;;;;19.60;99.90;;;;;;5122486;27;20356;-78
2021/09/09 04:50:14;;;;;;;;;;;19.50;99.90;;;;;;5122451;27;19911;-79
2021/09/09 04:52:39;;;;;;;;;;;19.50;99.90;;;;;;5122097;27;19983;-77
2021/09/09 04:55:05;;;;;;;;;;;19.50;99.90;;;;;;5128412;27;19911;-80
2021/09/09 04:57:31;;;;;;;;;;;19.50;99.90;;;;;;5110516;27;19908;-79
2021/09/09 04:59:56;;;;;;;;;;;19.60;99.90;;;;;;5099163;27;19915;-76
2021/09/09 05:02:22;;;;;;;;;;;19.50;99.90;;;;;;5129720;27;20387;-76
2021/09/09 05:04:48;;;;;;;;;;;19.60;99.90;;;;;;5111374;27;19912;-76
2021/09/09 05:07:13;;;;;;;;;;;19.60;99.90;;;;;;5094239;27;20032;-78
2021/09/09 05:09:39;;;;;;;;;;;19.50;99.90;;;;;;5127067;27;19912;-76
2021/09/09 05:12:05;;;;;;;;;;;19.40;99.90;;;;;;5125951;27;19912;-77
2021/09/09 05:14:30;;;;;;;;;;;19.40;99.90;;;;;;5127985;27;20372;-77
2021/09/09 05:16:56;;;;;;;;;;;19.30;99.90;;;;;;5111604;27;19911;-77
2021/09/09 05:19:21;;;;;;;;;;;19.30;99.90;;;;;;5124659;27;19961;-77
2021/09/09 05:21:47;;;;;;;;;;;19.30;99.90;;;;;;5098261;28;20440;-79
2021/09/09 05:24:13;;;;;;;;;;;19.20;99.90;;;;;;5110531;27;19908;-76
2021/09/09 05:26:38;;;;;;;;;;;19.10;99.90;;;;;;5096625;28;19924;-77
2021/09/09 05:29:04;;;;;;;;;;;19.10;99.90;;;;;;5121579;27;20000;-76
2021/09/09 05:31:29;;;;;;;;;;;19.20;99.90;;;;;;5113385;27;20365;-77
2021/09/09 05:33:55;;;;;;;;;;;19.20;99.90;;;;;;5116907;27;20285;-76
2021/09/09 05:36:21;;;;;;;;;;;19.10;99.90;;;;;;5108907;27;19916;-76
2021/09/09 05:38:46;;;;;;;;;;;19.20;99.90;;;;;;5108669;27;19956;-76
2021/09/09 05:41:12;;;;;;;;;;;19.30;99.90;;;;;;5108989;27;19944;-76
2021/09/09 05:43:37;;;;;;;;;;;19.30;99.90;;;;;;5110851;28;19919;-76
2021/09/09 05:46:03;;;;;;;;;;;19.40;99.90;;;;;;5120949;27;20045;-76
2021/09/09 05:48:29;;;;;;;;;;;19.50;99.90;;;;;;5128618;27;20376;-74
2021/09/09 05:50:54;;;;;;;;;;;19.70;99.90;;;;;;5079877;28;20011;-74
2021/09/09 05:53:20;;;;;;;;;;;19.70;99.90;;;;;;5086472;28;20278;-75
2021/09/09 05:55:45;;;;;;;;;;;19.80;99.90;;;;;;5123893;27;19911;-74
2021/09/09 05:58:11;;;;;;;;;;;19.80;99.90;;;;;;5118586;27;19915;-74
2021/09/09 06:00:36;;;;;;;;;;;19.80;99.90;;;;;;5115720;27;20208;-75
2021/09/09 06:03:03;;;;;;;;;;;19.90;99.90;;;;;;5120051;27;19911;-75
2021/09/09 06:05:28;;;;;;;;;;;20.00;99.90;;;;;;5088294;28;19983;-75
2021/09/09 06:07:54;;;;;;;;;;;20.10;99.90;;;;;;5118645;27;19924;-75
2021/09/09 06:10:20;;;;;;;;;;;20.10;99.90;;;;;;5106566;28;19911;-75
2021/09/09 06:12:45;;;;;;;;;;;20.10;99.90;;;;;;5095398;27;19911;-75
2021/09/09 06:15:11;;;;;;;;;;;20.20;99.90;;;;;;5132661;27;19946;-75
2021/09/09 06:17:37;;;;;;;;;;;20.30;99.90;;;;;;5123989;28;19915;-74
2021/09/09 06:20:04;;;;;;;;;;;20.30;99.90;;;;;;5107409;28;19919;-74
2021/09/09 06:22:29;;;;;;;;;;;20.40;99.90;;;;;;5118616;28;19964;-76
2021/09/09 06:24:55;;;;;;;;;;;20.50;99.90;;;;;;5118861;28;20062;-75
2021/09/09 06:27:20;;;;;;;;;;;20.60;99.90;;;;;;5093340;28;20008;-75
2021/09/09 06:29:46;;;;;;;;;;;20.60;99.90;;;;;;5127055;28;19912;-75
2021/09/09 06:32:11;;;;;;;;;;;20.70;99.90;;;;;;5130848;28;19947;-78
2021/09/09 06:34:37;;;;;;;;;;;20.80;99.90;;;;;;5127860;28;19945;-76
2021/09/09 06:37:03;;;;;;;;;;;20.90;99.80;;;;;;5109185;28;19916;-76
2021/09/09 06:39:29;;;;;;;;;;;20.90;99.70;;;;;;5137618;27;19907;-75
2021/09/09 06:41:54;;;;;;;;;;;21.00;99.80;;;;;;5136079;27;19919;-75
2021/09/09 06:44:20;;;;;;;;;;;21.10;99.70;;;;;;5132556;27;20039;-76
2021/09/09 06:46:45;;;;;;;;;;;21.20;99.50;;;;;;5127345;27;19916;-75
2021/09/09 06:49:11;;;;;;;;;;;21.30;99.50;;;;;;5137542;27;19908;-75
2021/09/09 06:51:37;;;;;;;;;;;21.40;99.30;;;;;;5126355;27;19916;-75
2021/09/09 06:54:03;;;;;;;;;;;21.50;99.20;;;;;;5101969;27;19979;-75
2021/09/09 06:56:29;;;;;;;;;;;21.60;99.20;;;;;;5120606;27;20480;-76
2021/09/09 06:58:54;;;;;;;;;;;21.60;98.90;;;;;;5137086;27;19908;-74
2021/09/09 07:01:20;;;;;;;;;;;21.80;99.00;;;;;;5112572;27;19919;-75
2021/09/09 07:03:46;;;;;;;;;;;21.90;98.80;;;;;;5110454;27;20005;-74
2021/09/09 07:06:12;;;;;;;;;;;22.00;98.70;;;;;;5124758;27;20019;-75
2021/09/09 07:08:37;;;;;;;;;;;22.10;98.60;;;;;;5100465;27;19926;-75
2021/09/09 07:11:03;;;;;;;;;;;22.20;98.50;;;;;;5127349;27;19911;-75
2021/09/09 07:13:29;;;;;;;;;;;22.30;98.50;;;;;;5134463;27;19919;-74
2021/09/09 07:15:56;;;;;;;;;;;22.40;98.40;;;;;;5133185;27;19915;-75
2021/09/09 07:18:21;;;;;;;;;;;22.50;97.90;;;;;;5126086;27;20585;-75
2021/09/09 07:20:47;;;;;;;;;;;22.60;98.00;;;;;;5126064;27;20016;-75
2021/09/09 07:23:12;;;;;;;;;;;22.70;98.00;;;;;;5125316;27;19964;-77
2021/09/09 07:25:38;;;;;;;;;;;22.80;97.70;;;;;;5131041;27;19916;-75
2021/09/09 07:28:04;;;;;;;;;;;22.90;97.40;;;;;;5137061;27;19933;-74
2021/09/09 07:30:30;;;;;;;;;;;23.10;97.30;;;;;;5130504;27;19912;-75
2021/09/09 07:32:55;;;;;;;;;;;23.10;97.20;;;;;;5129974;27;19964;-77
2021/09/09 07:35:21;;;;;;;;;;;23.20;97.10;;;;;;5131521;27;19911;-76
2021/09/09 07:37:46;;;;;;;;;;;23.30;97.00;;;;;;5131962;27;19980;-74
2021/09/09 07:40:12;;;;;;;;;;;23.30;96.50;;;;;;5123195;27;19911;-75
2021/09/09 07:42:38;;;;;;;;;;;23.30;96.60;;;;;;5131681;27;19988;-76
2021/09/09 07:45:05;;;;;;;;;;;23.30;96.30;;;;;;5134670;27;19911;-76
2021/09/09 07:47:31;;;;;;;;;;;23.40;96.60;;;;;;5102703;28;20333;-75
2021/09/09 07:49:56;;;;;;;;;;;23.50;96.40;;;;;;5114313;27;20394;-75
2021/09/09 07:52:22;;;;;;;;;;;23.60;96.20;;;;;;5118699;27;19937;-77
2021/09/09 07:54:48;;;;;;;;;;;23.70;96.00;;;;;;5117501;27;20027;-76
2021/09/09 07:57:14;;;;;;;;;;;23.70;96.00;;;;;;5126956;27;19911;-75
2021/09/09 07:59:40;;;;;;;;;;;23.80;96.00;;;;;;5132819;27;19915;-75
2021/09/09 08:02:06;;;;;;;;;;;23.90;95.50;;;;;;5124434;27;20297;-76
2021/09/09 08:04:31;;;;;;;;;;;23.90;95.70;;;;;;5100067;28;20101;-75
2021/09/09 08:06:57;;;;;;;;;;;24.10;95.60;;;;;;5115605;28;19924;-76
2021/09/09 08:09:22;;;;;;;;;;;24.20;95.70;;;;;;5124771;27;20134;-75
2021/09/09 08:11:48;;;;;;;;;;;24.20;95.10;;;;;;5071514;28;20020;-75
2021/09/09 08:14:14;;;;;;;;;;;24.30;94.90;;;;;;5112953;27;19926;-76
2021/09/09 08:16:39;;;;;;;;;;;24.40;94.90;;;;;;5116235;27;19942;-75
2021/09/09 08:19:05;;;;;;;;;;;24.40;94.70;;;;;;5138570;27;20283;-76
2021/09/09 08:21:31;;;;;;;;;;;24.50;94.90;;;;;;5124721;27;20366;-75
2021/09/09 08:23:57;;;;;;;;;;;24.50;94.90;;;;;;5115480;27;19919;-75
2021/09/09 08:26:23;;;;;;;;;;;24.50;95.00;;;;;;5128625;27;19921;-76
2021/09/09 08:28:49;;;;;;;;;;;24.60;94.30;;;;;;5125216;27;19926;-79
2021/09/09 08:31:14;;;;;;;;;;;24.70;94.40;;;;;;5130172;27;19919;-75
2021/09/09 08:33:42;;;;;;;;;;;24.80;94.20;;;;;;5132872;27;19907;-76
2021/09/09 08:36:08;;;;;;;;;;;24.90;93.70;;;;;;5106537;27;19923;-75
2021/09/09 08:38:34;;;;;;;;;;;24.90;93.70;;;;;;5136138;27;19914;-76
2021/09/09 08:41:01;;;;;;;;;;;24.90;93.90;;;;;;5132153;27;20009;-76
2021/09/09 08:43:27;;;;;;;;;;;24.80;93.90;;;;;;5125351;27;19919;-76
2021/09/09 08:45:53;;;;;;;;;;;24.90;93.80;;;;;;5123979;27;19916;-75
2021/09/09 08:48:19;;;;;;;;;;;24.90;93.70;;;;;;5127730;27;19919;-75
2021/09/09 08:50:44;;;;;;;;;;;25.00;93.60;;;;;;5120214;27;20292;-75
2021/09/09 08:53:11;;;;;;;;;;;25.00;93.40;;;;;;5125313;27;19920;-74
2021/09/09 08:55:37;;;;;;;;;;;25.10;93.50;;;;;;5114014;27;19916;-75
2021/09/09 08:58:05;;;;;;;;;;;25.10;93.30;;;;;;5134816;27;20009;-75
2021/09/09 09:00:31;;;;;;;;;;;25.00;93.50;;;;;;5114464;27;21171;-75
2021/09/09 09:02:56;;;;;;;;;;;24.90;93.90;;;;;;5135668;27;19947;-78
2021/09/09 09:05:23;;;;;;;;;;;24.90;93.70;;;;;;5134129;27;19916;-75
2021/09/09 09:07:56;;;;;;;;;;;24.80;94.10;;;;;;5119571;27;19945;-76
2021/09/09 09:10:21;;;;;;;;;;;24.70;93.90;;;;;;5132331;27;19918;-75
2021/09/09 09:12:50;;;;;;;;;;;24.70;94.40;;;;;;5108184;27;19950;-76
2021/09/09 09:15:28;;;;;;;;;;;24.70;95.10;;;;;;5127050;27;19911;-74
2021/09/09 09:18:02;;;;;;;;;;;24.60;98.50;;;;;;5132735;27;20288;-75
2021/09/09 09:20:54;;;;;;;;;;;24.50;96.10;;;;;;5135276;27;19908;-75
2021/09/09 09:23:27;;;;;;;;;;;24.40;96.30;;;;;;5111654;27;20361;-75
2021/09/09 09:25:58;;;;;;;;;;;24.40;96.40;;;;;;5122017;27;19916;-75
2021/09/09 09:28:33;;;;;;;;;;;24.30;97.40;;;;;;5111531;28;19908;-75
2021/09/09 09:31:06;;;;;;;;;;;24.30;96.40;;;;;;5117470;27;20006;-76
2021/09/09 09:33:42;;;;;;;;;;;24.20;97.00;;;;;;5130095;27;19911;-76
2021/09/09 09:36:27;;;;;;;;;;;24.20;97.60;;;;;;5124794;27;19969;-78
2021/09/09 09:38:54;;;;;;;;;;;24.20;97.30;;;;;;5116832;27;19912;-75
2021/09/09 09:41:22;;;;;;;;;;;24.30;97.50;;;;;;5128744;27;19912;-76
2021/09/09 09:43:50;;;;;;;;;;;24.30;98.50;;;;;;5135204;27;19911;-75
2021/09/09 09:46:29;;;;;;;;;;;24.20;99.90;;;;;;5132742;27;19916;-76
2021/09/09 09:48:55;;;;;;;;;;;24.10;99.00;;;;;;5128925;27;20376;-76
2021/09/09 09:51:40;;;;;;;;;;;24.10;96.40;;;;;;5120727;27;19951;-73
2021/09/09 09:54:08;;;;;;;;;;;24.10;94.60;;;;;;5097160;28;19920;-76
2021/09/09 09:56:34;;;;;;;;;;;24.00;96.70;;;;;;5121654;27;20089;-75
2021/09/09 09:59:00;;;;;;;;;;;24.00;97.70;;;;;;5124087;27;19911;-75
2021/09/09 10:01:25;;;;;;;;;;;24.10;98.20;;;;;;5129755;27;19934;-77
2021/09/09 10:03:51;;;;;;;;;;;24.20;97.80;;;;;;5124478;27;19980;-75
2021/09/09 10:06:17;;;;;;;;;;;24.20;98.90;;;;;;5134819;27;19916;-76
2021/09/09 10:08:44;;;;;;;;;;;24.20;97.80;;;;;;5119886;27;19919;-75
2021/09/09 10:11:11;;;;;;;;;;;24.40;97.10;;;;;;5127261;27;19951;-75
2021/09/09 10:13:37;;;;;;;;;;;24.40;94.90;;;;;;5110882;28;19916;-76
2021/09/09 10:16:03;;;;;;;;;;;24.40;95.40;;;;;;5127176;27;20220;-75
2021/09/09 10:18:29;;;;;;;;;;;24.40;95.20;;;;;;5101355;28;19915;-75
2021/09/09 10:20:55;;;;;;;;;;;24.40;95.40;;;;;;5130249;28;19907;-76
2021/09/09 10:23:25;;;;;;;;;;;24.50;95.80;;;;;;5122066;28;19911;-75
2021/09/09 10:25:54;;;;;;;;;;;24.40;96.60;;;;;;5117251;28;20006;-76
2021/09/09 10:28:32;;;;;;;;;;;24.40;97.10;;;;;;5120410;28;19911;-76
2021/09/09 10:31:05;;;;;;;;;;;24.40;96.40;;;;;;5132026;28;19934;-76
2021/09/09 10:33:31;;;;;;;;;;;24.50;96.50;;;;;;5115497;28;19908;-75
2021/09/09 10:35:57;;;;;;;;;;;24.60;97.50;;;;;;5115351;28;19918;-76
2021/09/09 10:38:23;;;;;;;;;;;24.50;98.90;;;;;;5129363;28;19911;-76
2021/09/09 10:40:49;;;;;;;;;;;24.60;98.00;;;;;;5133457;28;20361;-76
2021/09/09 10:43:37;;;;;;;;;;;24.50;97.90;;;;;;5100316;28;19912;-76
2021/09/09 10:46:04;;;;;;;;;;;24.50;97.60;;;;;;5071696;28;19916;-75
2021/09/09 10:48:30;;;;;;;;;;;24.30;97.40;;;;;;5096529;28;20177;-76
2021/09/09 10:51:01;;;;;;;;;;;24.40;97.50;;;;;;5098156;28;20215;-76
2021/09/09 10:53:33;;;;;;;;;;;24.40;98.60;;;;;;5129669;28;20273;-76
2021/09/09 10:56:07;;;;;;;;;;;24.30;97.30;;;;;;5090849;28;19919;-76
2021/09/09 10:58:32;;;;;;;;;;;24.20;99.10;;;;;;5117653;28;19912;-75
2021/09/09 11:01:00;;;;;;;;;;;24.20;99.80;;;;;;5123269;28;19908;-76
2021/09/09 11:03:39;;;;;;;;;;;24.20;99.70;;;;;;5117054;28;19911;-75
2021/09/09 11:06:06;;;;;;;;;;;24.30;99.70;;;;;;5130854;28;19936;-76
2021/09/09 11:08:32;;;;;;;;;;;24.40;99.90;;;;;;5129311;28;20264;-75
2021/09/09 11:10:57;;;;;;;;;;;24.40;99.10;;;;;;5131182;28;19912;-75
2021/09/09 11:13:27;;;;;;;;;;;24.50;99.50;;;;;;5125093;28;19922;-77
2021/09/09 11:15:52;;;;;;;;;;;24.40;99.50;;;;;;5111336;28;19912;-74
2021/09/09 11:18:25;;;;;;;;;;;24.40;99.30;;;;;;5125546;28;19911;-76
2021/09/09 11:21:20;;;;;;;;;;;24.30;99.90;;;;;;5123068;28;19949;-79
2021/09/09 11:23:46;;;;;;;;;;;24.30;99.90;;;;;;5107371;27;20349;-75
2021/09/09 11:26:13;;;;;;;;;;;24.20;99.90;;;;;;5125447;27;20280;-76
2021/09/09 11:28:39;;;;;;;;;;;24.30;99.90;;;;;;5130332;27;19974;-76
2021/09/09 11:31:15;;;;;;;;;;;24.20;99.90;;;;;;5129885;27;19912;-76
2021/09/09 11:33:47;;;;;;;;;;;24.20;99.90;;;;;;5142088;27;19907;-75
2021/09/09 11:36:13;;;;;;;;;;;24.10;99.90;;;;;;5133812;27;19923;-75
2021/09/09 11:38:38;;;;;;;;;;;24.00;99.90;;;;;;5125570;27;19912;-77
2021/09/09 11:41:08;;;;;;;;;;;23.90;99.90;;;;;;5130790;27;19923;-76
2021/09/09 11:43:33;;;;;;;;;;;24.00;99.90;;;;;;5103372;28;20301;-79
2021/09/09 11:45:59;;;;;;;;;;;24.20;99.90;;;;;;5136085;27;19911;-76
2021/09/09 11:48:25;;;;;;;;;;;24.30;99.90;;;;;;5118110;27;20366;-76
2021/09/09 11:50:51;;;;;;;;;;;24.30;99.90;;;;;;5094076;27;20021;-76
2021/09/09 11:53:23;;;;;;;;;;;24.30;99.90;;;;;;5121445;27;20373;-76
2021/09/09 11:55:49;;;;;;;;;;;24.20;99.90;;;;;;5115079;27;19918;-75
2021/09/09 11:58:30;;;;;;;;;;;24.10;99.90;;;;;;5125917;27;19911;-76
2021/09/09 12:00:57;;;;;;;;;;;24.20;99.90;;;;;;5122636;27;19911;-75
2021/09/09 12:03:23;;;;;;;;;;;24.10;99.90;;;;;;5129693;27;19976;-75
2021/09/09 12:05:50;;;;;;;;;;;24.10;99.90;;;;;;5133349;27;19911;-76
2021/09/09 12:08:17;;;;;;;;;;;24.10;99.90;;;;;;5132966;27;20341;-76
2021/09/09 12:10:44;;;;;;;;;;;24.10;99.90;;;;;;5134400;27;20258;-75
2021/09/09 12:13:10;;;;;;;;;;;24.00;99.90;;;;;;5120858;27;19990;-75
2021/09/09 12:15:35;;;;;;;;;;;23.90;99.90;;;;;;5128566;27;19935;-75
2021/09/09 12:18:09;;;;;;;;;;;24.00;99.90;;;;;;5122423;27;21276;-76
2021/09/09 12:20:34;;;;;;;;;;;24.10;99.90;;;;;;5122305;27;20287;-75
2021/09/09 12:23:01;;;;;;;;;;;24.00;99.90;;;;;;5123814;27;20002;-76
2021/09/09 12:25:26;;;;;;;;;;;24.10;99.90;;;;;;5129412;27;20024;-77
2021/09/09 12:28:08;;;;;;;;;;;24.10;99.90;;;;;;5130854;27;20409;-75
2021/09/09 12:30:38;;;;;;;;;;;24.30;99.90;;;;;;5103263;27;20309;-75
2021/09/09 12:33:04;;;;;;;;;;;24.30;99.90;;;;;;5132164;27;19939;-74
2021/09/09 12:35:30;;;;;;;;;;;24.40;99.90;;;;;;5122474;27;19911;-74
2021/09/09 12:38:00;;;;;;;;;;;24.50;99.90;;;;;;5126429;27;19915;-75
2021/09/09 12:40:38;;;;;;;;;;;24.50;99.90;;;;;;5117596;27;19950;-75
2021/09/09 12:43:23;;;;;;;;;;;24.60;99.90;;;;;;5094414;27;19967;-75
2021/09/09 12:45:48;;;;;;;;;;;24.60;99.90;;;;;;5128459;27;19915;-75
2021/09/09 12:48:14;;;;;;;;;;;24.60;99.90;;;;;;5130235;27;19913;-76
2021/09/09 12:50:49;;;;;;;;;;;24.60;99.90;;;;;;5114161;27;19911;-76
2021/09/09 12:53:15;;;;;;;;;;;24.40;99.90;;;;;;5120708;27;19958;-75
2021/09/09 12:55:41;;;;;;;;;;;24.40;99.90;;;;;;5111079;27;20361;-76
2021/09/09 12:58:10;;;;;;;;;;;24.60;99.90;;;;;;5112404;28;19984;-75
2021/09/09 13:00:36;;;;;;;;;;;24.60;99.90;;;;;;5113571;27;19912;-75
2021/09/09 13:03:02;;;;;;;;;;;24.50;99.90;;;;;;5114754;27;20361;-75
2021/09/09 13:05:27;;;;;;;;;;;24.50;99.90;;;;;;5120588;27;20292;-75
2021/09/09 13:07:53;;;;;;;;;;;24.70;99.90;;;;;;5135464;27;20426;-76
2021/09/09 13:10:19;;;;;;;;;;;24.70;99.90;;;;;;5137211;27;19915;-76
2021/09/09 13:12:44;;;;;;;;;;;24.70;99.90;;;;;;5130541;27;19915;-76
2021/09/09 13:15:10;;;;;;;;;;;24.70;99.90;;;;;;5125956;27;19943;-75
2021/09/09 13:17:36;;;;;;;;;;;24.80;99.90;;;;;;5136354;27;19998;-76
2021/09/09 13:20:01;;;;;;;;;;;24.70;99.90;;;;;;5112301;27;20006;-78
2021/09/09 13:22:27;;;;;;;;;;;24.70;99.90;;;;;;5130809;27;19950;-77
2021/09/09 13:24:53;;;;;;;;;;;24.70;99.90;;;;;;5122401;27;19912;-75
2021/09/09 13:27:18;;;;;;;;;;;24.80;99.90;;;;;;5109680;27;19919;-80
2021/09/09 13:29:44;;;;;;;;;;;24.70;99.90;;;;;;5136257;27;19907;-75
2021/09/09 13:32:09;;;;;;;;;;;24.70;99.90;;;;;;5133207;27;20384;-76
2021/09/09 13:34:35;;;;;;;;;;;24.90;99.90;;;;;;5136921;27;19952;-76
2021/09/09 13:37:01;;;;;;;;;;;24.90;99.90;;;;;;5133654;27;19942;-76
2021/09/09 13:39:26;;;;;;;;;;;24.90;99.90;;;;;;5107463;27;20330;-76
2021/09/09 13:41:52;;;;;;;;;;;25.10;99.90;;;;;;5102477;27;20266;-76
2021/09/09 13:44:21;;;;;;;;;;;25.10;99.90;;;;;;5122149;27;19911;-76
2021/09/09 13:46:46;;;;;;;;;;;25.00;99.90;;;;;;5122395;27;19958;-76
2021/09/09 13:49:12;;;;;;;;;;;25.00;99.90;;;;;;5136015;27;20318;-78
2021/09/09 13:51:37;;;;;;;;;;;25.00;99.90;;;;;;5119765;27;20041;-74
2021/09/09 13:54:03;;;;;;;;;;;24.90;99.90;;;;;;5127508;27;20282;-75
2021/09/09 13:56:29;;;;;;;;;;;24.90;99.90;;;;;;5113284;27;19913;-76
2021/09/09 13:58:54;;;;;;;;;;;24.90;99.90;;;;;;5120215;27;19916;-76
2021/09/09 14:01:20;;;;;;;;;;;24.60;99.90;;;;;;5136177;27;19914;-75
2021/09/09 14:03:46;;;;;;;;;;;24.60;99.90;;;;;;5130307;27;20006;-75
2021/09/09 14:06:11;;;;;;;;;;;24.50;99.90;;;;;;5120506;27;19916;-78
2021/09/09 14:08:37;;;;;;;;;;;24.60;99.90;;;;;;5120865;27;19998;-75
2021/09/09 14:11:03;;;;;;;;;;;24.60;99.90;;;;;;5105438;28;19915;-74
2021/09/09 14:13:28;;;;;;;;;;;24.70;99.90;;;;;;5127705;27;19919;-75